Terminal Aerodrome Forecast
Issued by NWS

Home | Current Version | Previous Version | Text Only | Print | Product List | Glossary On
Versions: 1 2 3 4 5 6 7 8 9 10 11 12 13 14
000
FTUS43 KOAX 092351
TAFBFF
TAF
KBFF 092351Z 1000/1024 10007KT P6SM SCT120
     FM100400 10007KT P6SM OVC020
     FM101400 10005KT P6SM OVC070
     FM101900 26014KT P6SM BKN070=

USA.gov is the U.S. government's official web portal to all federal, state and local government web resources and services.